sensor_id;sensor_type;location;lat;lon;timestamp;P1;P2;P0
76330;PMS7003;65148;51.912;15.570;2024-01-06T00:14:51;31;28;20
76330;PMS7003;65148;51.912;15.570;2024-01-06T00:30:17;36;33;24
76330;PMS7003;65148;51.912;15.570;2024-01-06T00:45:18;32;30;18
76330;PMS7003;65148;51.912;15.570;2024-01-06T01:00:22;24;23;19
76330;PMS7003;65148;51.912;15.570;2024-01-06T01:15:23;38;34;21
76330;PMS7003;65148;51.912;15.570;2024-01-06T01:34:31;32;30;21
76330;PMS7003;65148;51.912;15.570;2024-01-06T01:49:32;25;23;15
76330;PMS7003;65148;51.912;15.570;2024-01-06T02:04:34;35;30;21
76330;PMS7003;65148;51.912;15.570;2024-01-06T02:19:59;34;31;22
76330;PMS7003;65148;51.912;15.570;2024-01-06T02:35:00;24;23;17
76330;PMS7003;65148;51.912;15.570;2024-01-06T02:50:01;28;26;18
76330;PMS7003;65148;51.912;15.570;2024-01-06T03:05:02;37;30;21
76330;PMS7003;65148;51.912;15.570;2024-01-06T03:20:28;28;28;17
76330;PMS7003;65148;51.912;15.570;2024-01-06T03:35:28;34;32;21
76330;PMS7003;65148;51.912;15.570;2024-01-06T03:50:29;32;31;21
76330;PMS7003;65148;51.912;15.570;2024-01-06T04:05:30;23;21;18
76330;PMS7003;65148;51.912;15.570;2024-01-06T04:20:55;33;29;22
76330;PMS7003;65148;51.912;15.570;2024-01-06T04:35:56;34;31;21
76330;PMS7003;65148;51.912;15.570;2024-01-06T04:50:59;17;11;3
76330;PMS7003;65148;51.912;15.570;2024-01-06T05:06:00;35;31;21
76330;PMS7003;65148;51.912;15.570;2024-01-06T05:52:27;24;22;12
76330;PMS7003;65148;51.912;15.570;2024-01-06T09:28:39;52;43;26
76330;PMS7003;65148;51.912;15.570;2024-01-06T09:43:39;66;55;32
76330;PMS7003;65148;51.912;15.570;2024-01-06T09:59:07;50;42;26
76330;PMS7003;65148;51.912;15.570;2024-01-06T10:14:08;59;47;27
76330;PMS7003;65148;51.912;15.570;2024-01-06T10:29:09;52;43;26
76330;PMS7003;65148;51.912;15.570;2024-01-06T10:44:11;40;36;21
76330;PMS7003;65148;51.912;15.570;2024-01-06T10:59:35;39;36;23
76330;PMS7003;65148;51.912;15.570;2024-01-06T11:14:39;39;36;24
76330;PMS7003;65148;51.912;15.570;2024-01-06T11:29:42;39;38;23
76330;PMS7003;65148;51.912;15.570;2024-01-06T11:44:49;52;37;23
76330;PMS7003;65148;51.912;15.570;2024-01-06T12:00:06;52;44;27
76330;PMS7003;65148;51.912;15.570;2024-01-06T12:15:07;44;39;24
76330;PMS7003;65148;51.912;15.570;2024-01-06T12:45:19;48;41;25
76330;PMS7003;65148;51.912;15.570;2024-01-06T13:00:34;38;36;22
76330;PMS7003;65148;51.912;15.570;2024-01-06T13:15:35;42;39;24
76330;PMS7003;65148;51.912;15.570;2024-01-06T13:30:36;56;46;28
76330;PMS7003;65148;51.912;15.570;2024-01-06T13:45:39;56;46;29
76330;PMS7003;65148;51.912;15.570;2024-01-06T14:01:02;35;29;12
76330;PMS7003;65148;51.912;15.570;2024-01-06T14:16:03;50;42;28
76330;PMS7003;65148;51.912;15.570;2024-01-06T14:31:05;60;50;32
76330;PMS7003;65148;51.912;15.570;2024-01-06T14:46:05;48;44;27
76330;PMS7003;65148;51.912;15.570;2024-01-06T15:01:33;42;37;19
76330;PMS7003;65148;51.912;15.570;2024-01-06T15:16:34;47;40;26
76330;PMS7003;65148;51.912;15.570;2024-01-06T15:31:37;52;44;29
76330;PMS7003;65148;51.912;15.570;2024-01-06T15:46:37;48;40;26
76330;PMS7003;65148;51.912;15.570;2024-01-06T16:02:01;36;32;18
76330;PMS7003;65148;51.912;15.570;2024-01-06T16:17:03;33;29;20
76330;PMS7003;65148;51.912;15.570;2024-01-06T16:32:04;51;45;28
76330;PMS7003;65148;51.912;15.570;2024-01-06T16:47:06;35;30;19
76330;PMS7003;65148;51.912;15.570;2024-01-06T17:02:30;28;23;14
76330;PMS7003;65148;51.912;15.570;2024-01-06T17:17:31;32;31;19
76330;PMS7003;65148;51.912;15.570;2024-01-06T17:32:32;22;21;15
76330;PMS7003;65148;51.912;15.570;2024-01-06T17:47:36;16;13;9
76330;PMS7003;65148;51.912;15.570;2024-01-06T18:02:58;15;13;11
76330;PMS7003;65148;51.912;15.570;2024-01-06T18:17:59;18;17;10
76330;PMS7003;65148;51.912;15.570;2024-01-06T18:33:01;15;13;9
76330;PMS7003;65148;51.912;15.570;2024-01-06T18:48:02;13;12;7
76330;PMS7003;65148;51.912;15.570;2024-01-06T19:03:26;21;19;14
76330;PMS7003;65148;51.912;15.570;2024-01-06T19:18:27;27;24;17
76330;PMS7003;65148;51.912;15.570;2024-01-06T19:33:28;25;23;17
76330;PMS7003;65148;51.912;15.570;2024-01-06T19:48:29;15;14;12
76330;PMS7003;65148;51.912;15.570;2024-01-06T20:03:54;28;26;17
76330;PMS7003;65148;51.912;15.570;2024-01-06T20:18:55;16;13;13
76330;PMS7003;65148;51.912;15.570;2024-01-06T20:33:56;18;17;13
76330;PMS7003;65148;51.912;15.570;2024-01-06T20:48:57;19;17;12
76330;PMS7003;65148;51.912;15.570;2024-01-06T21:04:23;14;13;11
76330;PMS7003;65148;51.912;15.570;2024-01-06T21:19:27;17;16;11
76330;PMS7003;65148;51.912;15.570;2024-01-06T21:34:27;16;15;10
76330;PMS7003;65148;51.912;15.570;2024-01-06T21:49:29;11;8;7
76330;PMS7003;65148;51.912;15.570;2024-01-06T22:04:50;13;11;9
76330;PMS7003;65148;51.912;15.570;2024-01-06T22:19:51;11;10;9
76330;PMS7003;65148;51.912;15.570;2024-01-06T22:34:52;16;13;8
76330;PMS7003;65148;51.912;15.570;2024-01-06T22:49:53;14;14;12
76330;PMS7003;65148;51.912;15.570;2024-01-06T23:05:18;14;12;11
76330;PMS7003;65148;51.912;15.570;2024-01-06T23:20:19;10;10;8
76330;PMS7003;65148;51.912;15.570;2024-01-06T23:35:20;15;11;10
76330;PMS7003;65148;51.912;15.570;2024-01-06T23:50:21;16;15;12
